createdAt,value
2019-05-29T00:00:23.250Z,11.53
2019-05-29T00:02:51.403Z,12.50
2019-05-29T00:05:19.409Z,11.97
2019-05-29T00:07:47.452Z,7.83
2019-05-29T00:10:15.395Z,9.83
2019-05-29T00:12:43.356Z,9.07
2019-05-29T00:15:12.394Z,13.07
2019-05-29T00:17:40.621Z,10.30
2019-05-29T00:20:08.744Z,9.80
2019-05-29T00:22:36.789Z,11.83
2019-05-29T00:25:04.887Z,10.17
2019-05-29T00:27:32.805Z,8.87
2019-05-29T00:30:00.743Z,9.03
2019-05-29T00:32:28.731Z,7.97
2019-05-29T00:34:56.766Z,11.20
2019-05-29T00:37:24.743Z,8.60
2019-05-29T00:39:52.747Z,5.33
2019-05-29T00:42:20.798Z,7.53
2019-05-29T00:44:48.751Z,5.47
2019-05-29T00:47:17.717Z,6.60
2019-05-29T00:49:45.891Z,5.43
2019-05-29T00:52:14.314Z,4.40
2019-05-29T00:54:42.714Z,7.90
2019-05-29T00:57:10.937Z,7.67
2019-05-29T00:59:39.078Z,9.70
2019-05-29T01:02:07.032Z,7.37
2019-05-29T01:04:34.972Z,6.00
2019-05-29T01:07:02.960Z,5.53
2019-05-29T01:09:30.876Z,4.27
2019-05-29T01:11:58.818Z,4.83
2019-05-29T01:14:26.835Z,6.63
2019-05-29T01:16:54.867Z,5.40
2019-05-29T01:19:25.658Z,4.17
2019-05-29T01:21:54.164Z,4.53
2019-05-29T01:24:22.706Z,6.07
2019-05-29T01:26:50.892Z,4.43
2019-05-29T01:29:19.488Z,6.43
2019-05-29T01:31:47.496Z,7.90
2019-05-29T01:34:15.649Z,3.53
2019-05-29T01:36:44.071Z,5.03
2019-05-29T01:39:11.962Z,7.03
2019-05-29T01:41:39.898Z,4.40
2019-05-29T01:44:07.956Z,4.77
2019-05-29T01:46:36.015Z,3.63
2019-05-29T01:49:04.098Z,3.23
2019-05-29T01:51:32.229Z,4.13
2019-05-29T01:54:00.203Z,4.77
2019-05-29T01:56:28.291Z,3.90
2019-05-29T01:58:56.303Z,5.87
2019-05-29T02:01:24.267Z,4.03
2019-05-29T02:03:52.252Z,3.10
2019-05-29T02:06:20.264Z,6.63
2019-05-29T02:08:48.272Z,4.37
2019-05-29T02:11:17.092Z,3.90
2019-05-29T02:13:45.231Z,2.70
2019-05-29T02:16:13.201Z,3.13
2019-05-29T02:18:41.346Z,4.47
2019-05-29T02:21:09.362Z,2.53
2019-05-29T02:23:37.311Z,4.67
2019-05-29T02:26:05.474Z,9.27
2019-05-29T02:28:33.501Z,6.53
2019-05-29T02:31:01.582Z,3.77
2019-05-29T02:33:29.579Z,1.80
2019-05-29T02:35:57.599Z,3.80
2019-05-29T02:38:27.202Z,5.40
2019-05-29T02:40:55.823Z,3.70
2019-05-29T02:43:25.426Z,6.20
2019-05-29T02:45:55.234Z,1.97
2019-05-29T02:48:24.969Z,5.53
2019-05-29T02:50:53.029Z,3.40
2019-05-29T02:53:22.213Z,3.33
2019-05-29T02:55:50.453Z,5.43
2019-05-29T02:58:18.453Z,3.53
2019-05-29T03:00:50.646Z,2.27
2019-05-29T03:03:18.848Z,6.13
2019-05-29T03:05:47.189Z,3.73
2019-05-29T03:08:15.190Z,3.67
2019-05-29T03:10:43.181Z,3.63
2019-05-29T03:13:11.881Z,2.83
2019-05-29T03:15:39.824Z,6.50
2019-05-29T03:18:07.714Z,3.97
2019-05-29T03:20:35.654Z,5.83
2019-05-29T03:23:03.749Z,2.13
2019-05-29T03:25:32.611Z,4.67
2019-05-29T03:28:00.651Z,6.17
2019-05-29T03:30:33.835Z,2.83
2019-05-29T03:32:58.252Z,4.83
2019-05-29T03:35:28.243Z,4.37
2019-05-29T03:37:58.756Z,4.27
2019-05-29T03:40:26.543Z,6.43
2019-05-29T03:42:55.154Z,3.80
2019-05-29T03:45:23.145Z,5.10
2019-05-29T03:47:51.117Z,6.87
2019-05-29T03:50:19.137Z,5.83
2019-05-29T03:52:49.260Z,5.27
2019-05-29T03:55:17.178Z,6.43
2019-05-29T03:57:45.172Z,5.10
2019-05-29T04:00:13.520Z,6.90
2019-05-29T04:02:41.471Z,7.50
2019-05-29T04:05:09.947Z,4.47
2019-05-29T04:07:38.357Z,2.97
2019-05-29T04:10:07.081Z,4.90
2019-05-29T04:12:35.516Z,4.60
2019-05-29T04:15:04.328Z,3.17
2019-05-29T04:17:35.508Z,4.50
2019-05-29T04:20:04.676Z,3.40
2019-05-29T04:22:38.719Z,9.13
2019-05-29T04:25:06.745Z,9.83
2019-05-29T04:27:36.118Z,8.73
2019-05-29T04:30:04.894Z,5.70
2019-05-29T04:32:34.222Z,4.23
2019-05-29T04:35:02.395Z,6.37
2019-05-29T04:37:30.380Z,7.70
2019-05-29T04:39:58.318Z,7.33
2019-05-29T04:42:26.275Z,6.27
2019-05-29T04:44:54.283Z,4.10
2019-05-29T04:47:22.177Z,5.17
2019-05-29T04:49:50.159Z,6.30
2019-05-29T04:52:18.052Z,5.97
2019-05-29T04:54:46.288Z,4.47
2019-05-29T04:57:14.236Z,4.13
2019-05-29T04:59:42.245Z,3.43
2019-05-29T05:02:10.177Z,3.50
2019-05-29T05:04:39.326Z,3.13
2019-05-29T05:07:07.644Z,4.07
2019-05-29T05:09:35.610Z,7.47
2019-05-29T05:12:03.579Z,4.13
2019-05-29T05:14:33.516Z,3.30
2019-05-29T05:17:01.795Z,6.13
2019-05-29T05:19:29.806Z,7.23
2019-05-29T05:21:57.795Z,4.77
2019-05-29T05:24:25.696Z,4.67
2019-05-29T05:26:53.681Z,2.97
2019-05-29T05:29:21.634Z,3.87
2019-05-29T05:31:49.703Z,4.10
2019-05-29T05:34:17.718Z,3.73
2019-05-29T05:36:45.724Z,5.37
2019-05-29T05:39:13.683Z,3.40
2019-05-29T05:41:41.644Z,1.90
2019-05-29T05:44:09.543Z,7.60
2019-05-29T05:46:37.489Z,4.60
2019-05-29T05:49:05.441Z,2.17
2019-05-29T05:51:33.525Z,3.20
2019-05-29T05:54:02.580Z,2.87
2019-05-29T05:56:31.396Z,1.53
2019-05-29T05:58:59.616Z,2.83
2019-05-29T06:01:27.544Z,4.53
2019-05-29T06:03:55.464Z,2.37
2019-05-29T06:06:23.427Z,4.30
2019-05-29T06:08:51.420Z,1.30
2019-05-29T06:11:19.341Z,2.33
2019-05-29T06:13:47.307Z,4.17
2019-05-29T06:16:15.283Z,3.23
2019-05-29T06:18:43.314Z,6.87
2019-05-29T06:21:11.283Z,3.50
2019-05-29T06:23:39.200Z,3.23
2019-05-29T06:26:07.149Z,4.97
2019-05-29T06:28:35.127Z,2.77
2019-05-29T06:31:03.072Z,3.37
2019-05-29T06:33:31.063Z,7.37
2019-05-29T06:35:58.943Z,3.07
2019-05-29T06:38:26.859Z,3.60
2019-05-29T06:40:54.853Z,5.23
2019-05-29T06:43:23.412Z,3.50
2019-05-29T06:45:51.526Z,2.27
2019-05-29T06:48:40.413Z,3.33
2019-05-29T06:50:57.129Z,5.67
2019-05-29T06:53:22.937Z,1.93
2019-05-29T06:55:54.262Z,3.20
2019-05-29T06:58:20.562Z,4.37
2019-05-29T07:00:48.576Z,5.60
2019-05-29T07:03:16.478Z,2.70
2019-05-29T07:05:50.203Z,4.30
2019-05-29T07:08:20.923Z,2.80
2019-05-29T07:10:44.602Z,2.77
2019-05-29T07:13:12.799Z,1.47
2019-05-29T07:15:40.843Z,3.47
2019-05-29T07:18:09.010Z,3.83
2019-05-29T07:20:37.089Z,2.43
2019-05-29T07:23:05.101Z,2.00
2019-05-29T07:25:33.056Z,3.50
2019-05-29T07:28:00.949Z,4.43
2019-05-29T07:30:30.127Z,1.40
2019-05-29T07:32:59.233Z,3.60
2019-05-29T07:35:27.317Z,1.30
2019-05-29T07:37:56.632Z,1.30
2019-05-29T07:40:24.587Z,1.13
2019-05-29T07:42:56.255Z,3.70
2019-05-29T07:45:22.179Z,2.13
2019-05-29T07:47:50.370Z,1.57
2019-05-29T07:50:18.440Z,3.77
2019-05-29T07:52:47.298Z,1.33
2019-05-29T07:55:15.945Z,2.40
2019-05-29T07:57:44.879Z,2.37
2019-05-29T08:00:14.738Z,2.93
2019-05-29T08:02:43.348Z,4.10
2019-05-29T08:05:11.514Z,2.40
2019-05-29T08:07:39.577Z,1.50
2019-05-29T08:10:08.637Z,1.83
2019-05-29T08:12:41.072Z,2.70
2019-05-29T08:15:06.613Z,2.00
2019-05-29T08:17:34.680Z,0.97
2019-05-29T08:20:06.862Z,1.40
2019-05-29T08:22:34.560Z,0.80
2019-05-29T08:25:01.873Z,3.37
2019-05-29T08:27:29.854Z,1.97
2019-05-29T08:29:57.837Z,1.00
2019-05-29T08:32:25.728Z,2.27
2019-05-29T08:34:53.715Z,1.00
2019-05-29T08:37:21.684Z,1.80
2019-05-29T08:39:49.656Z,1.20
2019-05-29T08:42:23.237Z,2.90
2019-05-29T08:44:47.489Z,1.67
2019-05-29T08:47:15.879Z,3.57
2019-05-29T08:49:47.656Z,3.47
2019-05-29T08:52:13.524Z,0.80
2019-05-29T08:54:42.041Z,1.23
2019-05-29T08:57:10.051Z,2.43
2019-05-29T08:59:37.990Z,1.33
2019-05-29T09:02:05.873Z,1.57
2019-05-29T09:04:33.819Z,1.10
2019-05-29T09:07:01.742Z,0.70
2019-05-29T09:09:29.660Z,0.63
2019-05-29T09:11:57.614Z,1.37
2019-05-29T09:14:25.531Z,1.60
2019-05-29T09:16:53.581Z,1.30
2019-05-29T09:19:22.762Z,0.60
2019-05-29T09:21:50.971Z,4.30
2019-05-29T09:24:19.391Z,2.27
2019-05-29T09:26:47.390Z,1.37
2019-05-29T09:29:19.933Z,1.27
2019-05-29T09:31:45.067Z,1.60
2019-05-29T09:34:13.705Z,0.60
2019-05-29T09:36:42.756Z,0.70
2019-05-29T09:39:11.122Z,3.33
2019-05-29T09:41:39.143Z,0.93
2019-05-29T09:44:07.041Z,4.83
2019-05-29T09:46:35.053Z,0.50
2019-05-29T09:49:02.947Z,0.50
2019-05-29T09:51:30.830Z,0.80
2019-05-29T09:54:01.008Z,0.93
2019-05-29T09:56:28.389Z,1.60
2019-05-29T09:58:57.935Z,1.30
2019-05-29T10:01:26.094Z,0.80
2019-05-29T10:03:55.330Z,3.37
2019-05-29T10:06:23.764Z,0.50
2019-05-29T10:08:51.670Z,1.20
2019-05-29T10:11:19.560Z,1.53
2019-05-29T10:13:47.565Z,4.90
2019-05-29T10:16:15.547Z,2.67
2019-05-29T10:18:43.548Z,1.60
2019-05-29T10:21:11.436Z,4.80
2019-05-29T10:23:39.454Z,0.53
2019-05-29T10:26:07.399Z,0.93
2019-05-29T10:28:50.046Z,1.73
2019-05-29T10:31:05.424Z,1.53
2019-05-29T10:33:33.645Z,0.67
2019-05-29T10:36:03.989Z,1.60
2019-05-29T10:38:31.257Z,0.60
2019-05-29T10:41:06.347Z,2.67
2019-05-29T10:43:34.155Z,5.63
2019-05-29T10:46:00.733Z,1.00
2019-05-29T10:48:28.675Z,0.97
2019-05-29T10:50:56.636Z,2.20
2019-05-29T10:53:24.738Z,4.53
2019-05-29T10:55:52.773Z,1.80
2019-05-29T10:58:20.728Z,1.17
2019-05-29T11:00:49.150Z,2.73
2019-05-29T11:03:17.073Z,2.70
2019-05-29T11:05:45.570Z,2.07
2019-05-29T11:08:13.612Z,0.97
2019-05-29T11:10:41.492Z,4.33
2019-05-29T11:13:09.377Z,2.00
2019-05-29T11:15:37.288Z,2.90
2019-05-29T11:18:05.309Z,2.33
2019-05-29T11:20:33.265Z,2.90
2019-05-29T11:23:01.161Z,0.80
2019-05-29T11:25:29.351Z,1.23
2019-05-29T11:27:58.559Z,3.30
2019-05-29T11:30:27.028Z,5.30
2019-05-29T11:32:56.783Z,1.87
2019-05-29T11:35:24.629Z,2.80
2019-05-29T11:37:52.704Z,0.67
2019-05-29T11:40:20.680Z,2.10
2019-05-29T11:42:48.627Z,0.87
2019-05-29T11:45:17.058Z,0.50
2019-05-29T11:47:45.044Z,0.87
2019-05-29T11:50:19.782Z,2.40
2019-05-29T11:52:43.697Z,2.00
2019-05-29T11:55:14.030Z,3.50
2019-05-29T11:57:41.991Z,0.93
2019-05-29T12:00:19.506Z,0.87
2019-05-29T12:02:40.286Z,0.80
2019-05-29T12:05:09.586Z,2.67
2019-05-29T12:07:37.574Z,0.83
2019-05-29T12:10:06.195Z,0.73
2019-05-29T12:12:34.603Z,1.37
2019-05-29T12:15:11.042Z,5.53
2019-05-29T12:17:32.236Z,4.00
2019-05-29T12:20:02.417Z,2.13
2019-05-29T12:22:29.815Z,1.53
2019-05-29T12:24:58.584Z,1.40
2019-05-29T12:27:26.752Z,4.13
2019-05-29T12:29:54.683Z,1.33
2019-05-29T12:32:22.630Z,2.60
2019-05-29T12:34:53.733Z,1.10
2019-05-29T12:37:20.181Z,0.87
2019-05-29T12:39:48.112Z,0.80
2019-05-29T12:42:16.003Z,3.80
2019-05-29T12:44:43.973Z,4.93
2019-05-29T12:47:11.916Z,2.00
2019-05-29T12:49:39.992Z,0.73
2019-05-29T12:52:09.140Z,4.03
2019-05-29T12:54:37.761Z,2.30
2019-05-29T12:57:05.711Z,0.70
2019-05-29T12:59:33.724Z,1.97
2019-05-29T13:02:02.698Z,1.20
2019-05-29T13:04:30.940Z,1.20
2019-05-29T13:07:00.391Z,0.93
2019-05-29T13:09:28.527Z,0.83
2019-05-29T13:11:56.584Z,0.77
2019-05-29T13:14:24.841Z,0.80
2019-05-29T13:16:53.011Z,1.43
2019-05-29T13:19:21.626Z,1.13
2019-05-29T13:21:49.746Z,7.53
2019-05-29T13:24:17.757Z,1.80
2019-05-29T13:26:45.883Z,0.80
2019-05-29T13:29:14.020Z,2.30
2019-05-29T13:31:42.199Z,0.57
2019-05-29T13:34:10.192Z,0.87
2019-05-29T13:36:38.237Z,0.60
2019-05-29T13:39:07.254Z,0.90
2019-05-29T13:41:35.307Z,2.77
2019-05-29T13:44:04.652Z,1.83
2019-05-29T13:46:32.776Z,0.73
2019-05-29T13:49:01.287Z,1.63
2019-05-29T13:51:29.212Z,1.60
2019-05-29T13:54:03.615Z,3.60
2019-05-29T13:56:27.043Z,0.60
2019-05-29T13:58:54.999Z,2.13
2019-05-29T14:01:23.002Z,0.63
2019-05-29T14:03:50.976Z,0.63
2019-05-29T14:06:19.061Z,2.03
2019-05-29T14:08:47.061Z,0.70
2019-05-29T14:11:15.043Z,1.97
2019-05-29T14:13:43.087Z,2.53
2019-05-29T14:16:11.030Z,0.63
2019-05-29T14:18:39.010Z,0.83
2019-05-29T14:21:07.457Z,5.03
2019-05-29T14:23:39.173Z,0.50
2019-05-29T14:26:06.348Z,0.50
2019-05-29T14:28:34.507Z,2.53
2019-05-29T14:31:03.769Z,0.60
2019-05-29T14:33:31.873Z,0.77
2019-05-29T14:36:00.984Z,0.67
2019-05-29T14:38:29.018Z,0.63
2019-05-29T14:40:56.989Z,0.63
2019-05-29T14:43:24.947Z,2.30
2019-05-29T14:45:52.967Z,2.87
2019-05-29T14:48:21.204Z,0.60
2019-05-29T14:50:49.095Z,0.77
2019-05-29T14:53:17.113Z,1.17
2019-05-29T14:55:45.059Z,0.70
2019-05-29T14:58:14.057Z,0.70
2019-05-29T15:00:42.327Z,2.57
2019-05-29T15:03:11.411Z,1.13
2019-05-29T15:05:39.467Z,0.63
2019-05-29T15:08:08.042Z,0.77
2019-05-29T15:10:36.430Z,0.93
2019-05-29T15:13:04.487Z,1.37
2019-05-29T15:15:32.464Z,0.60
2019-05-29T15:18:00.453Z,1.80
2019-05-29T15:20:28.468Z,1.30
2019-05-29T15:22:56.533Z,3.67
2019-05-29T15:25:24.689Z,2.83
2019-05-29T15:27:53.129Z,0.63
2019-05-29T15:30:23.521Z,4.50
2019-05-29T15:32:50.923Z,1.43
2019-05-29T15:35:20.315Z,0.60
2019-05-29T15:37:48.310Z,0.97
2019-05-29T15:40:17.180Z,1.80
2019-05-29T15:42:45.194Z,0.50
2019-05-29T15:45:14.142Z,0.67
2019-05-29T15:47:42.230Z,1.00
2019-05-29T15:50:11.572Z,7.50
2019-05-29T15:52:39.722Z,0.93
2019-05-29T15:55:21.389Z,0.80
2019-05-29T15:57:37.652Z,0.87
2019-05-29T16:00:07.009Z,1.10
2019-05-29T16:02:35.076Z,0.70
2019-05-29T16:05:02.960Z,2.03
2019-05-29T16:07:30.879Z,0.63
2019-05-29T16:09:58.880Z,0.90
2019-05-29T16:12:30.720Z,0.60
2019-05-29T16:14:56.426Z,0.63
2019-05-29T16:17:24.457Z,2.57
2019-05-29T16:19:52.427Z,1.33
2019-05-29T16:22:20.357Z,1.80
2019-05-29T16:24:48.416Z,0.73
2019-05-29T16:27:16.352Z,2.63
2019-05-29T16:29:44.236Z,1.90
2019-05-29T16:32:12.151Z,1.77
2019-05-29T16:34:40.183Z,2.07
2019-05-29T16:37:08.183Z,0.80
2019-05-29T16:39:36.176Z,0.77
2019-05-29T16:42:04.188Z,2.00
2019-05-29T16:44:32.128Z,1.50
2019-05-29T16:47:00.199Z,0.70
2019-05-29T16:49:28.166Z,4.13
2019-05-29T16:51:56.096Z,1.70
2019-05-29T16:54:24.000Z,1.37
2019-05-29T16:56:51.910Z,0.77
2019-05-29T16:59:21.281Z,0.77
2019-05-29T17:01:49.370Z,1.13
2019-05-29T17:04:17.659Z,0.70
2019-05-29T17:06:45.868Z,0.80
2019-05-29T17:09:14.506Z,1.60
2019-05-29T17:11:42.548Z,1.03
2019-05-29T17:14:10.475Z,1.73
2019-05-29T17:16:38.633Z,0.77
2019-05-29T17:19:06.648Z,0.90
2019-05-29T17:21:34.665Z,0.80
2019-05-29T17:24:02.674Z,0.77
2019-05-29T17:26:30.643Z,0.70
2019-05-29T17:28:58.547Z,1.30
2019-05-29T17:31:26.555Z,0.93
2019-05-29T17:33:54.552Z,0.90
2019-05-29T17:36:26.901Z,1.70
2019-05-29T17:38:52.143Z,0.70
2019-05-29T17:41:21.170Z,1.33
2019-05-29T17:43:49.423Z,0.80
2019-05-29T17:46:17.496Z,1.23
2019-05-29T17:48:45.465Z,1.07
2019-05-29T17:51:13.399Z,0.80
2019-05-29T17:53:41.541Z,0.93
2019-05-29T17:56:23.333Z,2.30
2019-05-29T17:58:39.593Z,1.10
2019-05-29T18:01:10.486Z,1.10
2019-05-29T18:03:38.703Z,2.00
2019-05-29T18:06:06.881Z,0.80
2019-05-29T18:08:34.962Z,1.90
2019-05-29T18:11:02.993Z,0.80
2019-05-29T18:13:31.190Z,5.40
2019-05-29T18:15:59.173Z,1.33
2019-05-29T18:18:27.819Z,1.60
2019-05-29T18:20:56.554Z,1.53
2019-05-29T18:23:24.587Z,0.83
2019-05-29T18:25:52.753Z,0.80
2019-05-29T18:28:21.924Z,0.60
2019-05-29T18:30:50.466Z,2.30
2019-05-29T18:33:18.666Z,1.30
2019-05-29T18:35:46.913Z,0.67
2019-05-29T18:38:15.019Z,0.70
2019-05-29T18:40:43.161Z,1.20
2019-05-29T18:43:11.205Z,0.60
2019-05-29T18:45:39.353Z,1.90
2019-05-29T18:48:07.398Z,0.80
2019-05-29T18:50:35.558Z,0.60
2019-05-29T18:53:04.042Z,0.93
2019-05-29T18:55:33.125Z,3.70
2019-05-29T18:58:02.125Z,0.60
2019-05-29T19:00:31.445Z,0.63
2019-05-29T19:02:59.599Z,0.63
2019-05-29T19:05:27.818Z,0.70
2019-05-29T19:07:55.885Z,0.63
2019-05-29T19:10:23.986Z,0.93
2019-05-29T19:12:52.014Z,0.80
2019-05-29T19:15:20.221Z,1.07
2019-05-29T19:17:48.337Z,0.80
2019-05-29T19:20:16.439Z,1.93
2019-05-29T19:22:44.509Z,2.90
2019-05-29T19:25:12.697Z,1.70
2019-05-29T19:27:42.339Z,2.70
2019-05-29T19:30:11.291Z,1.03
2019-05-29T19:32:39.261Z,1.00
2019-05-29T19:35:07.585Z,0.60
2019-05-29T19:37:35.695Z,0.77
2019-05-29T19:40:04.252Z,0.70
2019-05-29T19:42:32.386Z,0.93
2019-05-29T19:45:00.563Z,0.70
2019-05-29T19:47:28.625Z,2.83
2019-05-29T19:49:56.672Z,1.13
2019-05-29T19:52:25.060Z,0.80
2019-05-29T19:54:53.159Z,3.17
2019-05-29T19:57:21.274Z,0.90
2019-05-29T19:59:49.373Z,0.60
2019-05-29T20:02:17.471Z,1.00
2019-05-29T20:04:45.478Z,2.27
2019-05-29T20:07:13.565Z,1.97
2019-05-29T20:09:41.624Z,0.80
2019-05-29T20:12:09.761Z,2.73
2019-05-29T20:14:38.153Z,1.27
2019-05-29T20:17:06.365Z,1.53
2019-05-29T20:19:37.265Z,1.17
2019-05-29T20:22:04.259Z,1.23
2019-05-29T20:24:32.773Z,0.97
2019-05-29T20:27:01.297Z,4.50
2019-05-29T20:29:30.277Z,3.57
2019-05-29T20:31:58.468Z,0.90
2019-05-29T20:34:26.551Z,1.93
2019-05-29T20:36:54.604Z,0.80
2019-05-29T20:39:22.754Z,1.30
2019-05-29T20:41:50.794Z,2.27
2019-05-29T20:44:18.891Z,3.27
2019-05-29T20:46:46.960Z,0.70
2019-05-29T20:49:15.094Z,2.20
2019-05-29T20:51:43.178Z,1.00
2019-05-29T20:54:11.336Z,1.60
2019-05-29T20:56:39.849Z,1.10
2019-05-29T20:59:08.342Z,1.70
2019-05-29T21:01:40.973Z,0.80
2019-05-29T21:04:06.327Z,0.80
2019-05-29T21:06:34.556Z,0.60
2019-05-29T21:09:02.877Z,2.03
2019-05-29T21:11:30.939Z,1.53
2019-05-29T21:13:59.012Z,2.87
2019-05-29T21:16:27.054Z,1.00
2019-05-29T21:18:55.069Z,1.33
2019-05-29T21:21:23.506Z,1.33
2019-05-29T21:23:51.581Z,2.93
2019-05-29T21:26:19.678Z,0.73
2019-05-29T21:28:50.573Z,0.70
2019-05-29T21:31:17.466Z,0.70
2019-05-29T21:33:49.072Z,1.10
2019-05-29T21:36:15.201Z,2.20
2019-05-29T21:38:44.292Z,0.60
2019-05-29T21:41:12.579Z,0.70
2019-05-29T21:43:40.695Z,1.73
2019-05-29T21:46:08.750Z,3.40
2019-05-29T21:48:37.042Z,2.00
2019-05-29T21:51:05.151Z,5.20
2019-05-29T21:53:33.251Z,1.40
2019-05-29T21:56:01.357Z,1.07
2019-05-29T21:58:29.430Z,0.70
2019-05-29T22:00:57.700Z,2.97
2019-05-29T22:03:25.768Z,3.40
2019-05-29T22:05:53.940Z,1.90
2019-05-29T22:08:22.054Z,1.13
2019-05-29T22:10:51.352Z,0.80
2019-05-29T22:13:19.792Z,1.07
2019-05-29T22:15:47.836Z,2.30
2019-05-29T22:18:15.933Z,0.93
2019-05-29T22:20:44.046Z,0.80
2019-05-29T22:23:12.152Z,2.87
2019-05-29T22:25:40.181Z,1.03
2019-05-29T22:28:08.218Z,2.43
2019-05-29T22:30:36.259Z,1.53
2019-05-29T22:33:04.473Z,1.30
2019-05-29T22:35:32.537Z,0.77
2019-05-29T22:38:01.720Z,1.03
2019-05-29T22:40:30.083Z,0.87
2019-05-29T22:42:58.128Z,0.77
2019-05-29T22:45:26.288Z,3.70
2019-05-29T22:47:55.653Z,2.83
2019-05-29T22:50:24.194Z,0.60
2019-05-29T22:52:52.268Z,0.60
2019-05-29T22:55:20.346Z,2.13
2019-05-29T22:57:48.393Z,2.13
2019-05-29T23:00:17.181Z,2.50
2019-05-29T23:02:45.198Z,1.33
2019-05-29T23:05:13.292Z,0.90
2019-05-29T23:07:41.364Z,0.60
2019-05-29T23:10:09.726Z,1.90
2019-05-29T23:12:37.773Z,2.10
2019-05-29T23:15:06.239Z,1.87
2019-05-29T23:17:34.288Z,1.23
2019-05-29T23:20:04.241Z,1.43
2019-05-29T23:22:32.111Z,0.60
2019-05-29T23:25:00.942Z,0.80
2019-05-29T23:27:29.346Z,0.80
2019-05-29T23:29:57.461Z,3.33
2019-05-29T23:32:26.337Z,0.63
2019-05-29T23:34:55.081Z,0.87
2019-05-29T23:37:23.478Z,1.27
2019-05-29T23:39:51.440Z,0.97
2019-05-29T23:42:19.509Z,2.13
2019-05-29T23:44:47.567Z,2.60
2019-05-29T23:47:15.590Z,1.37
2019-05-29T23:49:43.671Z,2.07
2019-05-29T23:52:11.738Z,3.17
2019-05-29T23:54:39.925Z,0.70
2019-05-29T23:57:08.033Z,0.80
2019-05-29T23:59:36.049Z,1.20
